Time;durP1;ratioP1;P1;durP2;ratioP2;P2;SDS_P1;SDS_P2;PMS_P1;PMS_P2;Temp;Humidity;BMP_temperature;BMP_pressure;BME280_temperature;BME280_humidity;BME280_pressure;Samples;Min_cycle;Max_cycle;Signal;HPM_P1;HPM_P2
2023/10/02 00:05:05;;;;;;;5.85;2.60;;;26.10;99.90;;;;;;5032278;28;20048;-48
2023/10/02 00:07:35;;;;;;;4.45;2.80;;;26.10;99.90;;;;;;5039755;28;20040;-50
2023/10/02 00:10:02;;;;;;;4.07;2.88;;;26.20;99.90;;;;;;5050361;28;20017;-49
2023/10/02 00:12:31;;;;;;;3.53;2.40;;;26.20;99.90;;;;;;5032927;28;20036;-50
2023/10/02 00:14:58;;;;;;;3.53;3.05;;;26.20;99.90;;;;;;5039185;28;20033;-49
2023/10/02 00:17:24;;;;;;;3.85;3.05;;;26.10;99.90;;;;;;5030778;28;20037;-49
2023/10/02 00:19:57;;;;;;;5.57;2.95;;;26.10;99.90;;;;;;5051029;28;20049;-48
2023/10/02 00:22:38;;;;;;;7.13;2.97;;;26.00;99.90;;;;;;5052156;28;20025;-49
2023/10/02 00:25:19;;;;;;;4.28;2.90;;;26.00;99.90;;;;;;5034550;28;20036;-49
2023/10/02 00:27:54;;;;;;;5.20;3.20;;;25.80;99.90;;;;;;5051869;28;20021;-50
2023/10/02 00:30:22;;;;;;;6.13;3.45;;;25.80;99.90;;;;;;5052396;28;20017;-49
2023/10/02 00:32:50;;;;;;;7.75;3.92;;;25.80;99.90;;;;;;5034079;28;20456;-49
2023/10/02 00:35:16;;;;;;;5.35;3.40;;;25.70;99.90;;;;;;5052208;28;20029;-48
2023/10/02 00:37:52;;;;;;;5.65;2.85;;;25.60;99.90;;;;;;5051956;28;20079;-48
2023/10/02 00:40:21;;;;;;;4.50;2.85;;;25.60;99.90;;;;;;5042174;28;20021;-48
2023/10/02 00:42:56;;;;;;;5.82;3.35;;;25.50;99.90;;;;;;5052186;28;20063;-48
2023/10/02 00:45:38;;;;;;;6.50;3.58;;;25.50;99.90;;;;;;5051845;28;20037;-48
2023/10/02 00:50:50;;;;;;;5.05;3.58;;;25.40;99.90;;;;;;5052055;28;20538;-50
2023/10/02 00:53:24;;;;;;;5.57;3.17;;;25.30;99.90;;;;;;5051900;28;20078;-48
2023/10/02 00:55:51;;;;;;;7.88;2.88;;;25.30;99.90;;;;;;5051678;28;20017;-48
2023/10/02 00:58:19;;;;;;;6.18;3.40;;;25.30;99.90;;;;;;5051941;28;20096;-48
2023/10/02 01:00:50;;;;;;;6.50;3.30;;;25.20;99.90;;;;;;5052218;28;20071;-48
2023/10/02 01:03:16;;;;;;;5.63;3.25;;;25.20;99.90;;;;;;5051835;28;20074;-48
2023/10/02 01:05:58;;;;;;;4.63;3.50;;;25.20;99.90;;;;;;5051527;28;20036;-48
2023/10/02 01:08:24;;;;;;;5.40;3.70;;;25.10;99.90;;;;;;5051745;28;20112;-48
2023/10/02 01:10:59;;;;;;;6.55;3.35;;;25.10;99.90;;;;;;5051504;28;20029;-48
2023/10/02 01:13:35;;;;;;;6.53;4.45;;;25.10;99.90;;;;;;5051582;28;20044;-48
2023/10/02 01:16:09;;;;;;;7.15;4.15;;;25.00;99.90;;;;;;5051686;28;20021;-48
2023/10/02 01:18:39;;;;;;;6.82;4.15;;;25.00;99.90;;;;;;5051684;28;20025;-48
2023/10/02 01:21:12;;;;;;;7.50;3.55;;;25.00;99.90;;;;;;5051461;28;20028;-48
2023/10/02 01:24:07;;;;;;;4.15;3.63;;;25.00;99.90;;;;;;5033682;28;20032;-48
2023/10/02 01:26:37;;;;;;;7.13;3.47;;;25.00;99.90;;;;;;5051443;28;20021;-48
2023/10/02 01:29:06;;;;;;;5.70;3.25;;;24.90;99.90;;;;;;5051846;28;20057;-49
2023/10/02 01:31:35;;;;;;;6.05;3.38;;;24.90;99.90;;;;;;5053086;28;20036;-48
2023/10/02 01:34:02;;;;;;;7.97;3.97;;;24.90;99.90;;;;;;5055849;28;20164;-48
2023/10/02 01:36:32;;;;;;;4.22;3.72;;;24.90;99.90;;;;;;5037516;28;20021;-48
2023/10/02 01:39:15;;;;;;;7.47;4.00;;;24.80;99.90;;;;;;5055639;28;20037;-48
2023/10/02 01:41:52;;;;;;;6.80;3.40;;;24.80;99.90;;;;;;5055364;28;20385;-49
2023/10/02 01:44:22;;;;;;;5.22;3.78;;;24.80;99.90;;;;;;5055436;28;20021;-49
2023/10/02 01:46:52;;;;;;;4.97;3.67;;;24.80;99.90;;;;;;5055371;28;20069;-49
2023/10/02 01:49:26;;;;;;;6.22;4.07;;;24.70;99.90;;;;;;5055510;28;20031;-48
2023/10/02 01:51:57;;;;;;;6.97;4.50;;;24.70;99.90;;;;;;5055257;28;20036;-49
2023/10/02 01:54:26;;;;;;;6.18;4.40;;;24.70;99.90;;;;;;5055185;28;20404;-49
2023/10/02 01:56:55;;;;;;;7.85;4.47;;;24.70;99.90;;;;;;5055165;28;20031;-49
2023/10/02 01:59:21;;;;;;;9.65;4.43;;;24.60;99.90;;;;;;5054823;28;20384;-49
2023/10/02 02:01:52;;;;;;;8.20;4.53;;;24.70;99.90;;;;;;5055491;28;20049;-49
2023/10/02 02:04:29;;;;;;;7.88;3.92;;;24.60;99.90;;;;;;5055029;28;20017;-49
2023/10/02 02:07:00;;;;;;;5.95;3.53;;;24.60;99.90;;;;;;5055154;28;20031;-49
2023/10/02 02:09:30;;;;;;;4.68;3.63;;;24.60;99.90;;;;;;5054816;28;20024;-48
2023/10/02 02:12:12;;;;;;;7.10;4.47;;;24.50;99.90;;;;;;5054953;28;20037;-48
2023/10/02 02:14:52;;;;;;;6.13;3.70;;;24.50;99.90;;;;;;5054757;28;20017;-48
2023/10/02 02:17:25;;;;;;;4.82;3.42;;;24.50;99.90;;;;;;5054965;28;20020;-48
2023/10/02 02:19:51;;;;;;;7.85;3.97;;;24.50;99.90;;;;;;5054623;28;20036;-48
2023/10/02 02:22:31;;;;;;;5.20;3.90;;;24.50;99.90;;;;;;5054686;28;20028;-48
2023/10/02 02:24:58;;;;;;;8.45;3.95;;;24.50;99.90;;;;;;5054472;28;20025;-48
2023/10/02 02:27:25;;;;;;;;;;;24.50;99.90;;;;;;5055128;28;20021;-48
2023/10/02 02:29:56;;;;;;;4.53;3.33;;;24.40;99.90;;;;;;5054422;28;19999;-48
2023/10/02 02:35:27;;;;;;;7.15;3.80;;;24.40;99.90;;;;;;4973623;28;20051;-49
2023/10/02 02:37:54;;;;;;;7.88;3.58;;;24.40;99.90;;;;;;5038998;28;20033;-49
2023/10/02 02:40:22;;;;;;;6.63;3.70;;;24.40;99.90;;;;;;5054303;28;20021;-48
2023/10/02 02:42:51;;;;;;;5.50;3.45;;;24.30;99.90;;;;;;5054447;28;20270;-48
2023/10/02 02:45:30;;;;;;;6.70;3.40;;;24.30;99.90;;;;;;5054123;28;20017;-48
2023/10/02 02:47:57;;;;;;;6.95;3.08;;;24.30;99.90;;;;;;5054370;28;20415;-49
2023/10/02 02:50:28;;;;;;;3.10;2.80;;;24.30;99.90;;;;;;5054158;28;20465;-48
2023/10/02 02:55:42;;;;;;;;;;;24.30;99.90;;;;;;5039614;28;20028;-48
2023/10/02 02:58:08;;;;;;;5.55;2.60;;;24.30;99.90;;;;;;5054474;28;19912;-48
2023/10/02 03:00:35;;;;;;;4.15;2.80;;;24.30;99.90;;;;;;5054666;28;20025;-48
2023/10/02 03:03:02;;;;;;;4.65;2.38;;;24.30;99.90;;;;;;5053914;28;20040;-48
2023/10/02 03:05:43;;;;;;;3.95;3.00;;;24.30;99.90;;;;;;5053992;28;20032;-49
2023/10/02 03:08:11;;;;;;;4.82;2.42;;;24.30;99.90;;;;;;5053876;28;20029;-48
2023/10/02 03:10:39;;;;;;;6.85;2.75;;;24.30;99.90;;;;;;5054155;28;20158;-48
2023/10/02 03:13:15;;;;;;;4.10;2.50;;;24.30;99.90;;;;;;5053994;28;20044;-49
2023/10/02 03:15:48;;;;;;;4.68;2.67;;;24.40;99.90;;;;;;5037507;28;20029;-49
2023/10/02 03:18:30;;;;;;;2.40;1.85;;;24.40;99.90;;;;;;5040520;28;20492;-49
2023/10/02 03:23:38;;;;;;;4.28;2.00;;;24.50;99.90;;;;;;5053967;28;20075;-49
2023/10/02 03:26:20;;;;;;;4.35;2.70;;;24.50;99.90;;;;;;5053635;28;20021;-48
2023/10/02 03:28:48;;;;;;;3.25;2.20;;;24.50;99.90;;;;;;5053565;28;20477;-49
2023/10/02 03:31:17;;;;;;;3.65;2.60;;;24.50;99.90;;;;;;5053345;28;20025;-49
2023/10/02 03:33:43;;;;;;;3.78;1.70;;;24.60;99.90;;;;;;5053507;28;20493;-50
2023/10/02 03:36:14;;;;;;;4.35;2.05;;;24.60;99.90;;;;;;5053583;28;20106;-49
2023/10/02 03:38:48;;;;;;;3.08;1.83;;;24.60;99.90;;;;;;5053423;28;20020;-49
2023/10/02 03:41:15;;;;;;;3.78;1.88;;;24.70;99.90;;;;;;5053295;28;20028;-49
2023/10/02 03:43:43;;;;;;;5.45;1.90;;;24.70;99.90;;;;;;5053008;28;20125;-49
2023/10/02 03:46:22;;;;;;;2.45;1.92;;;24.70;99.90;;;;;;5053333;28;20028;-49
2023/10/02 03:48:58;;;;;;;3.38;1.92;;;24.70;99.90;;;;;;5053092;28;20025;-49
2023/10/02 03:51:40;;;;;;;3.85;2.30;;;24.80;99.90;;;;;;5053138;28;20032;-49
2023/10/02 03:54:20;;;;;;;6.38;3.35;;;24.80;99.90;;;;;;5052808;28;20025;-50
2023/10/02 03:56:50;;;;;;;4.65;2.50;;;24.80;99.90;;;;;;5053043;28;20110;-49
2023/10/02 03:59:20;;;;;;;3.20;2.38;;;24.80;99.90;;;;;;5035022;28;20100;-49
2023/10/02 04:01:47;;;;;;;2.85;2.13;;;24.80;99.90;;;;;;5053388;28;20045;-49
2023/10/02 04:06:42;;;;;;;2.58;1.95;;;24.80;99.90;;;;;;5052842;28;20465;-50
2023/10/02 04:09:18;;;;;;;3.50;2.70;;;24.90;99.90;;;;;;5052666;28;20044;-50
2023/10/02 04:11:45;;;;;;;3.25;2.45;;;24.90;99.90;;;;;;5052687;28;20109;-50
2023/10/02 04:14:18;;;;;;;3.60;1.90;;;24.90;99.90;;;;;;5052582;28;20052;-50
2023/10/02 04:16:46;;;;;;;6.53;2.38;;;24.90;99.90;;;;;;5052588;28;20013;-50
2023/10/02 04:19:16;;;;;;;2.97;2.35;;;24.90;99.90;;;;;;5052535;28;20423;-49
2023/10/02 04:21:47;;;;;;;3.88;2.80;;;24.90;99.90;;;;;;5052570;28;20047;-49
2023/10/02 04:24:13;;;;;;;3.42;1.75;;;24.90;99.90;;;;;;5052678;28;20090;-49
2023/10/02 04:26:44;;;;;;;4.88;2.22;;;24.90;99.90;;;;;;5034483;28;20469;-49
2023/10/02 04:32:11;;;;;;;5.82;2.38;;;24.90;99.90;;;;;;5052274;28;20044;-50
2023/10/02 04:34:36;;;;;;;6.13;3.90;;;24.90;99.90;;;;;;5052266;28;20032;-50
2023/10/02 04:37:19;;;;;;;6.95;2.40;;;24.90;99.90;;;;;;5052323;28;20090;-50
2023/10/02 04:42:57;;;;;;;7.32;2.97;;;24.90;99.90;;;;;;5052087;28;20063;-50
2023/10/02 04:45:21;;;;;;;8.90;2.42;;;24.90;99.90;;;;;;5037741;28;20025;-50
2023/10/02 04:47:54;;;;;;;7.40;2.47;;;24.80;99.90;;;;;;5052246;28;20025;-50
2023/10/02 04:53:17;;;;;;;6.53;2.72;;;24.90;99.90;;;;;;5051932;28;20028;-50
2023/10/02 04:55:43;;;;;;;13.95;3.13;;;24.80;99.90;;;;;;5051915;28;20416;-49
2023/10/02 04:58:19;;;;;;;13.30;3.65;;;24.80;99.90;;;;;;5034120;28;20024;-50
2023/10/02 05:04:02;;;;;;;16.55;3.55;;;24.80;99.90;;;;;;5052063;28;20369;-50
2023/10/02 05:06:43;;;;;;;19.92;3.50;;;24.80;99.90;;;;;;5040226;28;20033;-50
2023/10/02 05:11:55;;;;;;;16.10;3.67;;;24.80;99.90;;;;;;5033429;28;20175;-49
2023/10/02 05:14:33;;;;;;;7.28;3.10;;;24.80;99.90;;;;;;5051410;28;20143;-50
2023/10/02 05:17:19;;;;;;;10.57;3.00;;;24.80;99.90;;;;;;5051727;28;20032;-50
2023/10/02 05:20:01;;;;;;;9.48;2.70;;;24.80;99.90;;;;;;5050434;28;20021;-50
2023/10/02 05:22:30;;;;;;;7.53;3.30;;;24.70;99.90;;;;;;5051527;28;20143;-50
2023/10/02 05:25:04;;;;;;;6.15;2.38;;;24.80;99.90;;;;;;5051564;28;20049;-50
2023/10/02 05:27:31;;;;;;;9.60;2.90;;;24.70;99.90;;;;;;5051373;28;20107;-50
2023/10/02 05:30:05;;;;;;;18.42;6.97;;;24.70;99.90;;;;;;5033601;28;20053;-50
2023/10/02 05:32:35;;;;;;;11.82;3.22;;;24.70;99.90;;;;;;5051476;28;20041;-49
2023/10/02 05:35:06;;;;;;;12.63;3.17;;;24.70;99.90;;;;;;5050190;28;20017;-50
2023/10/02 05:37:42;;;;;;;6.65;4.20;;;24.70;99.90;;;;;;5051390;28;20036;-50
2023/10/02 05:46:06;;;;;;;5.18;2.90;;;24.70;99.90;;;;;;5051467;28;20512;-50
2023/10/02 05:50:56;;;;;;;16.10;3.83;;;24.70;99.90;;;;;;5051531;28;20519;-50
2023/10/02 05:53:34;;;;;;;9.15;3.30;;;24.70;99.90;;;;;;5051227;28;20033;-50
2023/10/02 05:58:36;;;;;;;9.63;3.90;;;24.70;99.90;;;;;;5051447;28;20017;-50
2023/10/02 06:01:06;;;;;;;13.10;4.75;;;24.70;99.90;;;;;;5050912;28;20033;-51
2023/10/02 06:03:37;;;;;;;12.07;4.15;;;24.70;99.90;;;;;;5051195;28;20107;-50
2023/10/02 06:06:17;;;;;;;9.38;4.45;;;24.70;99.90;;;;;;5051271;28;20064;-50
2023/10/02 06:08:49;;;;;;;8.50;3.17;;;24.60;99.90;;;;;;5051226;28;20028;-50
2023/10/02 06:11:28;;;;;;;10.93;3.90;;;24.60;99.90;;;;;;5051005;28;20028;-50
2023/10/02 06:14:09;;;;;;;8.32;3.55;;;24.60;99.90;;;;;;5051394;28;20052;-49
2023/10/02 06:16:38;;;;;;;8.57;3.83;;;24.60;99.90;;;;;;5038261;28;20019;-49
2023/10/02 06:19:06;;;;;;;8.68;3.05;;;24.60;99.90;;;;;;5055057;28;20378;-49
2023/10/02 06:21:46;;;;;;;5.97;2.88;;;24.60;99.90;;;;;;5054542;28;20050;-50
2023/10/02 06:24:17;;;;;;;11.18;4.95;;;24.60;99.90;;;;;;5054786;28;20031;-50
2023/10/02 06:26:58;;;;;;;9.73;4.78;;;24.60;99.90;;;;;;5054693;28;20067;-49
2023/10/02 06:29:25;;;;;;;9.93;3.70;;;24.60;99.90;;;;;;5054459;28;20013;-49
2023/10/02 06:31:58;;;;;;;11.23;4.95;;;24.60;99.90;;;;;;5054526;28;20025;-50
2023/10/02 06:34:38;;;;;;;5.97;3.63;;;24.70;99.90;;;;;;5037298;28;20025;-50
2023/10/02 06:37:16;;;;;;;11.25;4.60;;;24.70;99.90;;;;;;5036980;28;20015;-50
2023/10/02 06:40:02;;;;;;;14.02;6.10;;;24.70;99.90;;;;;;5054447;28;20104;-49
2023/10/02 06:42:28;;;;;;;12.50;8.57;;;24.60;99.90;;;;;;5040503;28;20025;-50
2023/10/02 06:44:54;;;;;;;9.30;4.28;;;24.70;99.90;;;;;;5054379;28;20388;-50
2023/10/02 06:47:22;;;;;;;8.70;4.43;;;24.70;99.90;;;;;;5054165;28;20025;-49
2023/10/02 06:49:51;;;;;;;10.57;4.25;;;24.70;99.90;;;;;;5036350;28;20427;-50
2023/10/02 06:52:20;;;;;;;17.05;3.83;;;24.70;99.90;;;;;;5054074;28;20037;-50
2023/10/02 06:54:55;;;;;;;6.40;3.67;;;24.70;99.90;;;;;;5054145;28;20013;-50
2023/10/02 06:57:24;;;;;;;9.48;4.47;;;24.80;99.90;;;;;;5053889;28;20111;-50
2023/10/02 06:59:51;;;;;;;22.58;11.38;;;24.90;99.90;;;;;;5054133;28;20099;-50
2023/10/02 07:02:23;;;;;;;21.05;12.77;;;24.90;99.90;;;;;;5053513;28;20048;-50
2023/10/02 07:04:50;;;;;;;22.98;12.50;;;24.90;99.90;;;;;;5052677;28;20052;-50
2023/10/02 07:07:20;;;;;;;;;;;25.00;99.90;;;;;;5054055;28;20017;-50
2023/10/02 07:09:48;;;;;;;44.85;7.93;;;25.00;99.90;;;;;;5052422;28;19909;-50
2023/10/02 07:12:14;;;;;;;48.83;8.63;;;25.10;99.90;;;;;;5052806;28;20045;-49
2023/10/02 07:14:42;;;;;;;48.60;8.88;;;25.20;99.90;;;;;;5052714;28;20029;-49
2023/10/02 07:17:16;;;;;;;18.27;7.07;;;25.30;99.90;;;;;;5052563;28;20032;-49
2023/10/02 07:19:48;;;;;;;14.88;5.82;;;25.30;99.90;;;;;;5053450;28;20017;-49
2023/10/02 07:22:22;;;;;;;19.13;6.75;;;25.40;99.90;;;;;;5053593;28;20045;-50
2023/10/02 07:24:48;;;;;;;26.77;4.80;;;25.40;99.90;;;;;;5053515;28;20020;-51
2023/10/02 07:27:26;;;;;;;23.15;6.68;;;25.50;99.90;;;;;;5035493;28;20101;-50
2023/10/02 07:29:58;;;;;;;13.40;4.50;;;25.50;99.90;;;;;;5035431;28;20037;-50
2023/10/02 07:32:27;;;;;;;16.75;5.00;;;25.50;99.90;;;;;;5018979;28;20032;-50
2023/10/02 07:34:54;;;;;;;19.50;4.75;;;25.60;99.90;;;;;;5052894;28;20017;-51
2023/10/02 07:37:23;;;;;;;18.20;5.30;;;25.60;99.90;;;;;;5053436;28;20036;-51
2023/10/02 07:39:56;;;;;;;14.07;3.50;;;25.70;99.90;;;;;;5053127;28;20033;-51
2023/10/02 07:42:24;;;;;;;14.45;3.97;;;25.70;99.90;;;;;;5052655;28;20032;-51
2023/10/02 07:44:50;;;;;;;;;;;25.70;99.90;;;;;;5053550;28;20029;-51
2023/10/02 07:47:20;;;;;;;12.73;3.92;;;25.80;99.90;;;;;;5052842;28;19905;-52
2023/10/02 07:49:58;;;;;;;11.68;2.97;;;25.80;99.90;;;;;;5034422;28;20032;-51
2023/10/02 07:52:29;;;;;;;9.15;2.72;;;25.80;99.90;;;;;;5052508;28;20032;-51
2023/10/02 07:54:59;;;;;;;9.70;3.70;;;25.90;99.90;;;;;;5052246;28;20391;-52
2023/10/02 07:57:32;;;;;;;5.43;2.78;;;25.90;99.90;;;;;;5052301;28;20112;-51
2023/10/02 08:00:49;;;;;;;9.52;3.17;;;25.90;99.90;;;;;;5051272;28;20021;-51
2023/10/02 08:02:53;;;;;;;6.80;2.90;;;26.00;99.90;;;;;;5038157;28;20033;-50
2023/10/02 08:05:21;;;;;;;11.32;3.15;;;26.00;99.90;;;;;;5034590;28;20025;-51
2023/10/02 08:07:47;;;;;;;7.57;3.25;;;26.10;99.90;;;;;;5052589;28;20017;-51
2023/10/02 08:10:16;;;;;;;5.70;2.50;;;26.10;99.90;;;;;;5052807;28;20024;-51
2023/10/02 08:12:54;;;;;;;8.38;2.80;;;26.20;99.90;;;;;;5052401;28;20048;-51
2023/10/02 08:15:26;;;;;;;11.52;3.83;;;26.30;99.90;;;;;;5052779;28;20028;-49
2023/10/02 08:20:32;;;;;;;9.20;2.65;;;26.40;99.90;;;;;;5034576;28;20103;-49
2023/10/02 08:23:02;;;;;;;7.88;3.50;;;26.40;99.90;;;;;;5052225;28;20460;-49
2023/10/02 08:25:28;;;;;;;7.03;3.47;;;26.50;99.90;;;;;;5052503;28;20021;-50
2023/10/02 08:27:57;;;;;;;9.45;2.88;;;26.60;99.90;;;;;;5052334;28;20029;-50
2023/10/02 08:30:28;;;;;;;3.78;2.42;;;26.60;99.90;;;;;;5052133;28;20013;-49
2023/10/02 08:33:05;;;;;;;5.97;2.33;;;26.70;99.90;;;;;;5051962;28;20076;-50
2023/10/02 08:35:32;;;;;;;7.35;2.75;;;26.80;99.90;;;;;;5047186;28;20021;-48
2023/10/02 08:37:59;;;;;;;5.95;2.75;;;26.80;99.90;;;;;;5044240;28;20032;-47
2023/10/02 08:40:26;;;;;;;10.00;2.65;;;26.80;99.90;;;;;;5048771;28;20496;-49
2023/10/02 08:42:52;;;;;;;4.97;2.50;;;26.90;99.90;;;;;;5022719;28;20112;-49
2023/10/02 08:45:20;;;;;;;4.57;2.35;;;26.90;99.90;;;;;;5044543;28;20115;-49
2023/10/02 08:47:49;;;;;;;;;;;27.00;99.90;;;;;;5042180;28;20104;-50
2023/10/02 08:50:16;;;;;;;6.32;2.75;;;27.00;99.90;;;;;;5048220;28;20345;-49
2023/10/02 08:52:50;;;;;;;6.97;2.30;;;27.10;99.90;;;;;;5048123;28;20421;-51
2023/10/02 08:58:22;;;;;;;6.55;2.53;;;27.20;99.90;;;;;;5048364;28;20071;-49
2023/10/02 09:03:41;;;;;;;6.38;2.22;;;27.40;99.90;;;;;;5048752;28;20051;-50
2023/10/02 09:06:31;;;;;;;5.68;3.42;;;27.40;99.90;;;;;;5047453;28;20021;-50
2023/10/02 09:09:16;;;;;;;6.63;3.90;;;27.50;99.90;;;;;;5042329;28;20499;-49
2023/10/02 09:11:44;;;;;;;12.40;4.45;;;27.50;99.90;;;;;;5030106;28;20033;-49
2023/10/02 09:16:47;;;;;;;5.75;4.05;;;27.60;99.90;;;;;;5048539;28;20113;-49
2023/10/02 09:19:30;;;;;;;10.38;8.00;;;27.60;99.90;;;;;;5048070;28;20021;-49
2023/10/02 09:22:06;;;;;;;9.77;4.40;;;27.60;99.90;;;;;;5048463;28;20044;-49
2023/10/02 09:24:36;;;;;;;5.72;2.42;;;27.70;99.90;;;;;;5041758;28;20071;-49
2023/10/02 09:27:25;;;;;;;3.25;2.90;;;27.70;99.90;;;;;;5045083;28;20025;-50
2023/10/02 09:32:50;;;;;;;5.13;2.55;;;27.80;99.90;;;;;;5047450;28;20056;-50
2023/10/02 09:38:03;;;;;;;5.45;2.67;;;27.90;99.90;;;;;;5046656;28;20500;-50
2023/10/02 09:40:54;;;;;;;6.47;4.00;;;28.00;99.90;;;;;;5043403;28;20477;-49
2023/10/02 09:43:24;;;;;;;6.10;3.92;;;28.00;99.90;;;;;;5041591;28;20024;-49
2023/10/02 09:45:55;;;;;;;4.88;2.92;;;28.20;99.90;;;;;;5047466;28;20021;-49
2023/10/02 09:51:20;;;;;;;4.78;2.67;;;28.30;99.90;;;;;;5044921;28;20037;-49
2023/10/02 09:54:05;;;;;;;7.65;2.65;;;28.30;99.90;;;;;;5050732;28;20567;-50
2023/10/02 09:57:05;;;;;;;4.38;2.50;;;28.40;99.90;;;;;;5028142;28;20030;-48
2023/10/02 09:59:45;;;;;;;13.23;5.78;;;28.40;99.90;;;;;;5039576;28;20033;-49
2023/10/02 10:10:49;;;;;;;2.88;2.33;;;28.70;99.90;;;;;;5050928;28;19999;-49
2023/10/02 10:13:49;;;;;;;6.40;4.18;;;28.70;99.90;;;;;;5049245;28;20361;-50
2023/10/02 10:16:18;;;;;;;8.73;4.05;;;28.70;99.90;;;;;;5006205;28;20037;-49
2023/10/02 10:21:56;;;;;;;7.18;4.38;;;28.70;99.90;;;;;;5050725;28;20072;-49
2023/10/02 10:24:32;;;;;;;4.82;2.78;;;28.80;99.90;;;;;;5032003;28;20064;-49
2023/10/02 10:26:58;;;;;;;5.82;3.08;;;28.80;99.90;;;;;;5051139;28;20466;-51
2023/10/02 10:29:43;;;;;;;5.88;2.97;;;28.90;99.90;;;;;;5051394;28;20037;-50
2023/10/02 10:32:23;;;;;;;4.18;2.00;;;28.90;99.90;;;;;;5050756;28;20068;-50
2023/10/02 10:35:14;;;;;;;7.30;3.17;;;29.00;99.90;;;;;;5050507;28;20017;-51
2023/10/02 10:37:48;;;;;;;5.25;3.47;;;29.10;99.90;;;;;;5050742;28;20392;-49
2023/10/02 10:41:05;;;;;;;6.50;3.00;;;29.20;99.90;;;;;;5050905;28;20032;-49
2023/10/02 10:43:44;;;;;;;3.85;2.42;;;29.20;99.90;;;;;;4968878;28;20491;-53
2023/10/02 10:46:14;;;;;;;4.65;2.60;;;29.30;99.90;;;;;;5042784;28;20087;-50
2023/10/02 10:48:45;;;;;;;5.07;2.83;;;29.50;99.90;;;;;;5050637;28;20028;-49
2023/10/02 10:51:20;;;;;;;6.60;3.20;;;29.50;99.90;;;;;;5050045;28;20049;-49
2023/10/02 10:54:13;;;;;;;4.07;2.80;;;29.60;99.90;;;;;;5049097;28;20437;-49
2023/10/02 10:56:46;;;;;;;3.58;2.47;;;29.70;99.90;;;;;;5040083;28;20033;-49
2023/10/02 10:59:22;;;;;;;5.40;2.50;;;29.70;99.90;;;;;;5049966;28;20043;-49
2023/10/02 11:02:09;;;;;;;4.60;1.80;;;29.70;99.90;;;;;;5048234;28;20041;-48
2023/10/02 11:04:52;;;;;;;4.47;2.70;;;29.80;99.90;;;;;;5040230;28;20043;-49
2023/10/02 11:07:25;;;;;;;2.95;2.13;;;29.90;99.90;;;;;;5043754;28;20026;-48
2023/10/02 11:10:19;;;;;;;5.22;2.38;;;30.00;99.90;;;;;;5049618;28;20017;-49
2023/10/02 11:12:59;;;;;;;8.68;2.97;;;30.00;99.90;;;;;;5032554;28;20041;-49
2023/10/02 11:15:54;;;;;;;10.70;6.80;;;30.10;99.90;;;;;;5046138;28;20017;-48
2023/10/02 11:18:22;;;;;;;3.38;1.90;;;30.30;99.90;;;;;;5044169;28;20361;-48
2023/10/02 11:20:54;;;;;;;6.15;2.58;;;30.30;99.90;;;;;;5042849;28;20107;-50
2023/10/02 11:23:43;;;;;;;9.25;5.68;;;30.30;99.90;;;;;;5048764;28;20087;-49
2023/10/02 11:26:21;;;;;;;3.05;1.80;;;30.40;99.90;;;;;;5046389;28;20028;-50
2023/10/02 11:28:50;;;;;;;3.40;2.08;;;30.40;99.90;;;;;;5044115;28;20009;-49
2023/10/02 11:31:29;;;;;;;15.30;2.17;;;30.50;99.90;;;;;;5049319;28;20048;-51
2023/10/02 11:34:11;;;;;;;4.72;1.88;;;30.40;99.90;;;;;;5049523;28;20033;-50
2023/10/02 11:36:46;;;;;;;5.10;2.00;;;30.50;99.90;;;;;;5046425;28;20104;-50
2023/10/02 11:39:19;;;;;;;4.55;2.20;;;30.50;99.90;;;;;;5046638;28;20536;-50
2023/10/02 11:41:46;;;;;;;4.97;1.90;;;30.60;99.90;;;;;;5045710;28;20102;-49
2023/10/02 11:44:13;;;;;;;10.52;5.25;;;30.60;99.90;;;;;;5049550;28;20155;-49
2023/10/02 11:46:46;;;;;;;3.97;2.28;;;30.60;99.90;;;;;;5038170;28;20041;-49
2023/10/02 11:49:12;;;;;;;6.25;2.33;;;30.60;99.90;;;;;;5048223;28;20075;-48
2023/10/02 11:51:39;;;;;;;3.67;1.80;;;30.70;99.90;;;;;;5046182;28;20445;-48
2023/10/02 11:54:13;;;;;;;3.43;1.53;;;30.70;99.90;;;;;;5041930;28;20033;-51
2023/10/02 11:56:38;;;;;;;3.05;2.28;;;30.70;99.90;;;;;;5049138;28;20063;-50
2023/10/02 11:59:06;;;;;;;2.72;2.30;;;30.70;99.90;;;;;;5050112;28;20056;-50
2023/10/02 12:01:33;;;;;;;4.15;1.52;;;30.70;99.90;;;;;;5044900;28;20043;-49
2023/10/02 12:03:58;;;;;;;4.78;1.80;;;30.80;99.90;;;;;;5049115;28;20037;-50
2023/10/02 12:06:27;;;;;;;3.40;1.73;;;30.80;99.90;;;;;;5049573;28;20465;-50
2023/10/02 12:08:58;;;;;;;2.55;1.58;;;30.80;99.90;;;;;;5042333;28;20017;-50
2023/10/02 12:11:24;;;;;;;3.05;1.58;;;30.80;99.90;;;;;;5046610;28;20033;-50
2023/10/02 12:13:51;;;;;;;6.57;1.60;;;30.90;99.90;;;;;;5044669;28;20025;-50
2023/10/02 12:16:19;;;;;;;2.58;1.45;;;30.90;99.90;;;;;;5041813;28;20266;-49
2023/10/02 12:18:45;;;;;;;2.20;1.33;;;30.90;99.90;;;;;;5024945;28;20048;-49
2023/10/02 12:21:11;;;;;;;4.53;1.65;;;31.00;99.90;;;;;;5045632;28;20401;-49
2023/10/02 12:23:43;;;;;;;2.80;1.48;;;31.00;99.90;;;;;;5048906;28;20024;-49
2023/10/02 12:26:16;;;;;;;2.97;1.23;;;31.10;99.90;;;;;;5046918;28;20037;-50
2023/10/02 12:28:43;;;;;;;5.35;1.23;;;31.10;99.90;;;;;;5041844;28;20056;-47
2023/10/02 12:31:10;;;;;;;1.98;1.13;;;31.20;99.90;;;;;;5041868;28;20497;-50
2023/10/02 12:33:38;;;;;;;5.80;1.73;;;31.20;99.90;;;;;;5049283;28;20512;-50
2023/10/02 12:36:17;;;;;;;4.55;2.15;;;31.30;99.90;;;;;;5041551;28;20029;-50
2023/10/02 12:38:45;;;;;;;2.08;1.08;;;31.30;99.90;;;;;;5040232;28;20474;-50
2023/10/02 12:41:15;;;;;;;4.18;1.50;;;31.30;99.90;;;;;;5041524;28;20076;-55
2023/10/02 12:43:46;;;;;;;2.60;1.63;;;31.30;99.90;;;;;;5043958;28;20033;-49
2023/10/02 12:46:16;;;;;;;2.75;1.23;;;31.30;99.90;;;;;;5040599;28;20033;-50
2023/10/02 12:48:48;;;;;;;2.40;2.03;;;31.30;99.90;;;;;;5039930;28;20470;-50
2023/10/02 12:51:15;;;;;;;3.42;1.80;;;31.30;99.90;;;;;;5023079;28;20036;-49
2023/10/02 12:53:45;;;;;;;3.47;1.77;;;31.30;99.90;;;;;;5045867;28;20496;-50
2023/10/02 12:56:20;;;;;;;5.55;1.92;;;31.30;99.90;;;;;;5048482;28;20420;-50
2023/10/02 12:58:54;;;;;;;5.63;1.75;;;31.30;99.90;;;;;;5047689;28;20031;-51
2023/10/02 13:01:24;;;;;;;3.10;1.55;;;31.30;99.90;;;;;;5045415;28;20373;-50
2023/10/02 13:03:59;;;;;;;2.20;1.27;;;31.30;99.90;;;;;;5036085;28;20035;-50
2023/10/02 13:06:26;;;;;;;3.78;1.75;;;31.30;99.90;;;;;;5042628;28;20128;-50
2023/10/02 13:09:04;;;;;;;2.50;1.50;;;31.30;99.90;;;;;;5048020;28;20543;-50
2023/10/02 13:11:30;;;;;;;6.07;1.73;;;31.30;99.90;;;;;;5047417;28;20012;-50
2023/10/02 13:13:56;;;;;;;3.40;1.65;;;31.30;99.90;;;;;;5047658;28;20035;-50
2023/10/02 13:16:25;;;;;;;2.80;1.73;;;31.30;99.90;;;;;;5046492;28;20025;-50
2023/10/02 13:18:51;;;;;;;2.60;1.77;;;31.30;99.90;;;;;;5044802;28;20025;-49
2023/10/02 13:21:18;;;;;;;3.50;1.75;;;31.30;99.90;;;;;;5046592;28;20041;-50
2023/10/02 13:23:45;;;;;;;;;;;31.30;99.90;;;;;;5042039;28;20470;-49
2023/10/02 13:26:11;;;;;;;3.80;1.93;;;31.30;99.90;;;;;;5044556;28;19905;-50
2023/10/02 13:28:38;;;;;;;3.45;1.73;;;31.30;99.90;;;;;;5040705;28;20040;-48
2023/10/02 13:31:13;;;;;;;3.63;1.40;;;31.30;99.90;;;;;;5044864;28;20025;-48
2023/10/02 13:33:52;;;;;;;1.88;1.20;;;31.30;99.90;;;;;;5029419;28;20052;-49
2023/10/02 13:36:22;;;;;;;1.65;1.35;;;31.30;99.90;;;;;;5022910;28;20029;-49
2023/10/02 13:38:49;;;;;;;7.78;1.60;;;31.30;99.90;;;;;;5039611;28;20037;-50
2023/10/02 13:41:15;;;;;;;2.25;1.63;;;31.40;99.90;;;;;;5047111;28;20131;-49
2023/10/02 13:43:42;;;;;;;2.47;1.35;;;31.40;99.90;;;;;;5030035;28;20033;-51
2023/10/02 13:46:09;;;;;;;2.63;1.63;;;31.40;99.90;;;;;;5047913;28;20039;-50
2023/10/02 13:48:38;;;;;;;2.65;1.60;;;31.40;99.90;;;;;;5029718;28;20382;-50
2023/10/02 13:51:08;;;;;;;5.82;1.33;;;31.40;99.90;;;;;;5044268;28;20025;-50
2023/10/02 13:53:35;;;;;;;1.83;1.33;;;31.40;99.90;;;;;;5045042;28;20124;-50
2023/10/02 13:56:08;;;;;;;;;;;31.40;99.90;;;;;;5041097;28;20017;-51
2023/10/02 13:58:42;;;;;;;4.10;2.00;;;31.40;99.90;;;;;;5040734;28;19915;-49
2023/10/02 14:01:09;;;;;;;1.83;1.20;;;31.40;99.90;;;;;;5046383;28;20118;-49
2023/10/02 14:03:36;;;;;;;5.10;1.40;;;31.40;99.90;;;;;;5042264;28;20048;-49
2023/10/02 14:06:08;;;;;;;;;;;31.50;99.90;;;;;;5043966;28;20196;-50
2023/10/02 14:08:35;;;;;;;5.85;1.98;;;31.50;99.90;;;;;;5047453;28;20028;-51
2023/10/02 14:11:02;;;;;;;4.07;1.47;;;31.50;99.90;;;;;;5047201;28;20022;-50
2023/10/02 14:13:28;;;;;;;;;;;31.50;99.90;;;;;;5041653;28;20377;-50
2023/10/02 14:15:54;;;;;;;7.60;2.50;;;31.50;99.90;;;;;;5043370;28;19915;-51
2023/10/02 14:18:23;;;;;;;6.07;2.33;;;31.50;99.90;;;;;;5047149;28;20017;-50
2023/10/02 14:21:09;;;;;;;3.28;1.88;;;31.50;99.90;;;;;;5048091;28;20029;-50
2023/10/02 14:23:36;;;;;;;3.93;1.63;;;31.50;99.90;;;;;;5046256;28;20017;-50
2023/10/02 14:26:07;;;;;;;3.78;1.70;;;31.50;99.90;;;;;;5047758;28;20303;-50
2023/10/02 14:28:34;;;;;;;4.53;1.75;;;31.50;99.90;;;;;;5040269;28;20458;-51